Airfield :
LOGIN :

Register | Disclaimer

   EN    FR    IT 

 










Legend :    VFR   Marginal VFR   IFR   Intensive IFR   Very Intensive IFR
Visi :
Ceiling :
>= 8 km
>= 3000ft
5 to 8 km
1000 to 3000 ft
1500m to 5 km
500 to 1000 ft
800 to 1500m
200 to 500 ft
< 800m
< 200 ft
Symbols :   Thunderstorms  Fog  Heavy snow  Heavy precipitations  Wind > 20 kt
SIGMETs :     Misc.  Thunderstorms  Icing  Turbulence  Mountain Waves  Volcanic Ashes







- Airport Elevation : 63 ft
- IATA code : BZM


EHWO - Woensdrecht Airbase

CURRENT METAR :
  • 172105Z AUTO 26005KT 220V290 9999 FEW008 FEW015CB SCT029 02/01 Q1013 BLU

EXPIRED METARs :
  • 172055Z AUTO 28006KT 240V320 9999 -RA SCT021 BKN025 BKN032 02/01 Q1013 WHT
  • 172026Z AUTO VRB05KT 9999 FEW013 FEW015CB SCT031 OVC120 02/01 Q1013 BLU
  • 172025Z AUTO VRB05KT 9999 -RA FEW013 FEW015CB SCT024 BKN028 02/01 Q1013 WHT
  • 171955Z AUTO 29004KT 240V340 9999 FEW015CB SCT026 BKN053 BKN061 02/01 Q1012 BLU
  • 171934Z AUTO 31004KT 210V360 9999 -RA FEW008 FEW015CB SCT025 BKN029 02/01 Q1012 BLU
  • 171925Z AUTO 32007KT 250V360 9999 -RA FEW010 FEW015CB BKN024 BKN033 02/01 Q1012 WHT
  • 171915Z AUTO 32013G23KT 240V040 3900 -RA FEW014 FEW015CB SCT017 BKN021 03/00 Q1012 GRN
  • 171855Z AUTO 28006KT 230V290 9999 BKN110 03/M00 Q1011 BLU
  • 171825Z AUTO 29004KT 240V320 9999 FEW034 02/M00 Q1010 BLU

TAF TAF EHWO
Valid from the 17 at 10:00 until the 17 at 22:00 UTC


170902Z 1710/1722 29012KT 6000 SCT020 BKN035
TEMPO 1710/1722 30015G25KT 3000 SHRASN SCT005 BKN012 SCT019CB
PROB30
TEMPO 1710/1718 2000 TSRAGS TSRASN SCT002 BKN005 SCT018CB
No reported NOTAMs for that airfield.



MET'MAP, your aeronautical weather chart ! - Copyright ORBIFLY December 2007 - Disclaimer

ORBIFLY MET'MAP TEAM :

Programming & Development : Alexandra Zaïnal
Concept & Development : Baudouin d'Aumeries
Co-Development & Prog : Marc-Olivier Méhu
Technical & hardware support : Manuel Goepfert

Contact : metmap@orbifly.com




SOURCES & CREDITS :

   NOAA